sensor_id;sensor_type;location;lat;lon;timestamp;temperature;humidity
40622;DHT22;26324;52.040;11.528;2022-12-07T00:03:32;0.70;93.40
40622;DHT22;26324;52.040;11.528;2022-12-07T00:05:58;0.70;93.40
40622;DHT22;26324;52.040;11.528;2022-12-07T00:08:24;0.70;93.50
40622;DHT22;26324;52.040;11.528;2022-12-07T00:10:49;0.80;93.60
40622;DHT22;26324;52.040;11.528;2022-12-07T00:13:15;1.00;93.70
40622;DHT22;26324;52.040;11.528;2022-12-07T00:15:41;1.00;93.70
40622;DHT22;26324;52.040;11.528;2022-12-07T00:18:06;1.00;93.60
40622;DHT22;26324;52.040;11.528;2022-12-07T00:20:32;0.90;93.50
40622;DHT22;26324;52.040;11.528;2022-12-07T00:22:58;1.00;93.50
40622;DHT22;26324;52.040;11.528;2022-12-07T00:25:24;0.90;93.50
40622;DHT22;26324;52.040;11.528;2022-12-07T00:27:49;0.90;93.50
40622;DHT22;26324;52.040;11.528;2022-12-07T00:30:15;0.90;93.50
40622;DHT22;26324;52.040;11.528;2022-12-07T00:32:41;0.90;93.60
40622;DHT22;26324;52.040;11.528;2022-12-07T00:35:06;0.90;93.60
40622;DHT22;26324;52.040;11.528;2022-12-07T00:37:32;1.00;93.70
40622;DHT22;26324;52.040;11.528;2022-12-07T00:39:57;1.00;93.70
40622;DHT22;26324;52.040;11.528;2022-12-07T00:42:23;1.10;93.70
40622;DHT22;26324;52.040;11.528;2022-12-07T00:44:48;1.10;93.70
40622;DHT22;26324;52.040;11.528;2022-12-07T00:47:14;1.20;93.70
40622;DHT22;26324;52.040;11.528;2022-12-07T00:49:39;1.30;93.70
40622;DHT22;26324;52.040;11.528;2022-12-07T00:52:05;1.30;93.70
40622;DHT22;26324;52.040;11.528;2022-12-07T00:54:30;1.30;93.60
40622;DHT22;26324;52.040;11.528;2022-12-07T00:56:56;1.40;93.70
40622;DHT22;26324;52.040;11.528;2022-12-07T00:59:21;1.40;93.60
40622;DHT22;26324;52.040;11.528;2022-12-07T01:01:47;1.50;93.60
40622;DHT22;26324;52.040;11.528;2022-12-07T01:04:13;1.50;93.50
40622;DHT22;26324;52.040;11.528;2022-12-07T01:06:38;1.50;93.40
40622;DHT22;26324;52.040;11.528;2022-12-07T01:09:04;1.60;93.40
40622;DHT22;26324;52.040;11.528;2022-12-07T01:11:30;1.50;93.20
40622;DHT22;26324;52.040;11.528;2022-12-07T01:13:57;1.50;93.10
40622;DHT22;26324;52.040;11.528;2022-12-07T01:16:25;1.50;93.00
40622;DHT22;26324;52.040;11.528;2022-12-07T01:18:52;1.50;93.00
40622;DHT22;26324;52.040;11.528;2022-12-07T01:21:38;1.50;93.00
40622;DHT22;26324;52.040;11.528;2022-12-07T01:24:05;1.50;93.00
40622;DHT22;26324;52.040;11.528;2022-12-07T01:26:31;1.50;92.90
40622;DHT22;26324;52.040;11.528;2022-12-07T01:28:57;1.50;92.90
40622;DHT22;26324;52.040;11.528;2022-12-07T01:31:25;1.50;92.80
40622;DHT22;26324;52.040;11.528;2022-12-07T01:33:55;1.60;92.70
40622;DHT22;26324;52.040;11.528;2022-12-07T01:36:32;1.60;92.50
40622;DHT22;26324;52.040;11.528;2022-12-07T01:39:00;1.60;92.50
40622;DHT22;26324;52.040;11.528;2022-12-07T01:41:30;1.60;92.40
40622;DHT22;26324;52.040;11.528;2022-12-07T01:44:15;1.60;92.30
40622;DHT22;26324;52.040;11.528;2022-12-07T01:46:44;1.60;92.30
40622;DHT22;26324;52.040;11.528;2022-12-07T01:49:14;1.60;92.10
40622;DHT22;26324;52.040;11.528;2022-12-07T01:51:42;1.60;92.00
40622;DHT22;26324;52.040;11.528;2022-12-07T01:54:10;1.60;92.00
40622;DHT22;26324;52.040;11.528;2022-12-07T01:56:37;1.60;92.00
40622;DHT22;26324;52.040;11.528;2022-12-07T01:59:04;1.60;91.70
40622;DHT22;26324;52.040;11.528;2022-12-07T02:01:30;1.70;91.80
40622;DHT22;26324;52.040;11.528;2022-12-07T02:03:55;1.70;91.60
40622;DHT22;26324;52.040;11.528;2022-12-07T02:06:24;1.70;91.50
40622;DHT22;26324;52.040;11.528;2022-12-07T02:08:50;1.80;91.50
40622;DHT22;26324;52.040;11.528;2022-12-07T02:11:16;1.90;91.40
40622;DHT22;26324;52.040;11.528;2022-12-07T02:13:43;1.90;91.20
40622;DHT22;26324;52.040;11.528;2022-12-07T02:16:27;1.90;91.00
40622;DHT22;26324;52.040;11.528;2022-12-07T02:24:54;1.80;91.00
40622;DHT22;26324;52.040;11.528;2022-12-07T02:30:19;1.90;91.30
40622;DHT22;26324;52.040;11.528;2022-12-07T02:33:02;2.10;91.50
40622;DHT22;26324;52.040;11.528;2022-12-07T02:35:55;2.10;91.60
40622;DHT22;26324;52.040;11.528;2022-12-07T02:41:04;2.00;91.20
40622;DHT22;26324;52.040;11.528;2022-12-07T02:43:35;2.00;91.20
40622;DHT22;26324;52.040;11.528;2022-12-07T02:46:20;1.90;91.10
40622;DHT22;26324;52.040;11.528;2022-12-07T02:48:47;2.00;91.20
40622;DHT22;26324;52.040;11.528;2022-12-07T02:51:14;2.00;91.30
40622;DHT22;26324;52.040;11.528;2022-12-07T02:53:41;2.00;91.20
40622;DHT22;26324;52.040;11.528;2022-12-07T03:02:08;2.00;91.50
40622;DHT22;26324;52.040;11.528;2022-12-07T03:05:01;2.00;91.60
40622;DHT22;26324;52.040;11.528;2022-12-07T03:15:41;2.10;91.30
40622;DHT22;26324;52.040;11.528;2022-12-07T03:18:09;2.10;91.30
40622;DHT22;26324;52.040;11.528;2022-12-07T03:20:37;2.00;91.30
40622;DHT22;26324;52.040;11.528;2022-12-07T03:23:06;2.00;91.40
40622;DHT22;26324;52.040;11.528;2022-12-07T03:25:38;2.00;91.50
40622;DHT22;26324;52.040;11.528;2022-12-07T03:28:06;2.00;91.60
40622;DHT22;26324;52.040;11.528;2022-12-07T03:30:58;2.10;91.60
40622;DHT22;26324;52.040;11.528;2022-12-07T03:33:31;2.20;91.70
40622;DHT22;26324;52.040;11.528;2022-12-07T03:36:13;2.20;91.70
40622;DHT22;26324;52.040;11.528;2022-12-07T03:44:43;2.50;91.50
40622;DHT22;26324;52.040;11.528;2022-12-07T03:47:22;2.50;91.40
40622;DHT22;26324;52.040;11.528;2022-12-07T03:49:56;2.60;91.40
40622;DHT22;26324;52.040;11.528;2022-12-07T03:52:42;2.60;91.30
40622;DHT22;26324;52.040;11.528;2022-12-07T03:55:18;2.60;91.40
40622;DHT22;26324;52.040;11.528;2022-12-07T03:57:46;2.70;91.40
40622;DHT22;26324;52.040;11.528;2022-12-07T04:00:13;2.70;91.40
40622;DHT22;26324;52.040;11.528;2022-12-07T04:02:40;2.70;91.40
40622;DHT22;26324;52.040;11.528;2022-12-07T04:05:07;2.70;91.50
40622;DHT22;26324;52.040;11.528;2022-12-07T04:07:33;2.80;91.50
40622;DHT22;26324;52.040;11.528;2022-12-07T04:10:19;2.80;91.50
40622;DHT22;26324;52.040;11.528;2022-12-07T04:12:44;2.80;91.60
40622;DHT22;26324;52.040;11.528;2022-12-07T04:15:10;2.80;91.60
40622;DHT22;26324;52.040;11.528;2022-12-07T04:17:36;2.90;91.80
40622;DHT22;26324;52.040;11.528;2022-12-07T04:20:06;3.00;91.70
40622;DHT22;26324;52.040;11.528;2022-12-07T04:22:32;3.00;91.80
40622;DHT22;26324;52.040;11.528;2022-12-07T04:24:58;3.00;91.80
40622;DHT22;26324;52.040;11.528;2022-12-07T04:27:23;3.10;91.90
40622;DHT22;26324;52.040;11.528;2022-12-07T04:29:49;3.10;91.90
40622;DHT22;26324;52.040;11.528;2022-12-07T04:32:18;3.20;91.90
40622;DHT22;26324;52.040;11.528;2022-12-07T04:34:44;3.20;91.90
40622;DHT22;26324;52.040;11.528;2022-12-07T04:37:10;3.20;92.00
40622;DHT22;26324;52.040;11.528;2022-12-07T04:39:35;3.20;92.10
40622;DHT22;26324;52.040;11.528;2022-12-07T04:42:01;3.30;92.10
40622;DHT22;26324;52.040;11.528;2022-12-07T04:44:28;3.30;92.10
40622;DHT22;26324;52.040;11.528;2022-12-07T04:46:55;3.40;92.10
40622;DHT22;26324;52.040;11.528;2022-12-07T04:49:21;3.40;92.10
40622;DHT22;26324;52.040;11.528;2022-12-07T04:51:47;3.40;91.90
40622;DHT22;26324;52.040;11.528;2022-12-07T04:54:13;3.40;92.00
40622;DHT22;26324;52.040;11.528;2022-12-07T04:56:39;3.40;91.90
40622;DHT22;26324;52.040;11.528;2022-12-07T04:59:04;3.40;91.80
40622;DHT22;26324;52.040;11.528;2022-12-07T05:01:30;3.40;92.00
40622;DHT22;26324;52.040;11.528;2022-12-07T05:03:56;3.50;92.00
40622;DHT22;26324;52.040;11.528;2022-12-07T05:06:22;3.50;91.90
40622;DHT22;26324;52.040;11.528;2022-12-07T05:08:47;3.50;91.80
40622;DHT22;26324;52.040;11.528;2022-12-07T05:11:13;3.50;91.90
40622;DHT22;26324;52.040;11.528;2022-12-07T05:13:59;3.40;91.80
40622;DHT22;26324;52.040;11.528;2022-12-07T05:16:25;3.30;91.80
40622;DHT22;26324;52.040;11.528;2022-12-07T05:18:51;3.30;92.00
40622;DHT22;26324;52.040;11.528;2022-12-07T05:21:16;3.30;92.00
40622;DHT22;26324;52.040;11.528;2022-12-07T05:23:42;3.30;92.10
40622;DHT22;26324;52.040;11.528;2022-12-07T05:26:07;3.30;92.10
40622;DHT22;26324;52.040;11.528;2022-12-07T05:28:33;3.30;92.20
40622;DHT22;26324;52.040;11.528;2022-12-07T05:30:58;3.30;92.10
40622;DHT22;26324;52.040;11.528;2022-12-07T05:33:24;3.30;92.10
40622;DHT22;26324;52.040;11.528;2022-12-07T05:35:49;3.30;91.90
40622;DHT22;26324;52.040;11.528;2022-12-07T05:38:15;3.30;92.00
40622;DHT22;26324;52.040;11.528;2022-12-07T05:40:40;3.30;91.90
40622;DHT22;26324;52.040;11.528;2022-12-07T05:43:06;3.30;92.00
40622;DHT22;26324;52.040;11.528;2022-12-07T05:45:32;3.40;92.10
40622;DHT22;26324;52.040;11.528;2022-12-07T05:47:57;3.40;92.10
40622;DHT22;26324;52.040;11.528;2022-12-07T05:50:23;3.40;92.10
40622;DHT22;26324;52.040;11.528;2022-12-07T05:52:49;3.40;92.20
40622;DHT22;26324;52.040;11.528;2022-12-07T05:55:14;3.40;92.20
40622;DHT22;26324;52.040;11.528;2022-12-07T05:57:40;3.40;92.40
40622;DHT22;26324;52.040;11.528;2022-12-07T06:00:25;3.50;92.40
40622;DHT22;26324;52.040;11.528;2022-12-07T06:02:51;3.50;92.30
40622;DHT22;26324;52.040;11.528;2022-12-07T06:05:16;3.60;92.30
40622;DHT22;26324;52.040;11.528;2022-12-07T06:07:42;3.60;92.20
40622;DHT22;26324;52.040;11.528;2022-12-07T06:10:07;3.60;92.20
40622;DHT22;26324;52.040;11.528;2022-12-07T06:12:33;3.60;92.10
40622;DHT22;26324;52.040;11.528;2022-12-07T06:14:59;3.50;92.00
40622;DHT22;26324;52.040;11.528;2022-12-07T06:17:24;3.50;92.10
40622;DHT22;26324;52.040;11.528;2022-12-07T06:19:50;3.40;92.10
40622;DHT22;26324;52.040;11.528;2022-12-07T06:22:16;3.50;92.10
40622;DHT22;26324;52.040;11.528;2022-12-07T06:24:42;3.40;92.10
40622;DHT22;26324;52.040;11.528;2022-12-07T06:27:09;3.50;92.10
40622;DHT22;26324;52.040;11.528;2022-12-07T06:29:34;3.40;92.00
40622;DHT22;26324;52.040;11.528;2022-12-07T06:32:00;3.40;92.00
40622;DHT22;26324;52.040;11.528;2022-12-07T06:34:26;3.40;92.00
40622;DHT22;26324;52.040;11.528;2022-12-07T06:36:53;3.30;91.90
40622;DHT22;26324;52.040;11.528;2022-12-07T06:39:25;3.30;91.90
40622;DHT22;26324;52.040;11.528;2022-12-07T06:41:52;3.30;91.80
40622;DHT22;26324;52.040;11.528;2022-12-07T06:44:18;3.20;91.90
40622;DHT22;26324;52.040;11.528;2022-12-07T06:46:44;3.20;92.00
40622;DHT22;26324;52.040;11.528;2022-12-07T06:49:10;3.30;91.90
40622;DHT22;26324;52.040;11.528;2022-12-07T06:51:36;3.40;91.80
40622;DHT22;26324;52.040;11.528;2022-12-07T06:54:06;3.40;91.50
40622;DHT22;26324;52.040;11.528;2022-12-07T06:56:32;3.50;91.30
40622;DHT22;26324;52.040;11.528;2022-12-07T06:58:57;3.50;91.30
40622;DHT22;26324;52.040;11.528;2022-12-07T07:01:23;3.50;91.10
40622;DHT22;26324;52.040;11.528;2022-12-07T07:03:48;3.50;91.10
40622;DHT22;26324;52.040;11.528;2022-12-07T07:06:14;3.50;91.00
40622;DHT22;26324;52.040;11.528;2022-12-07T07:08:40;3.50;90.80
40622;DHT22;26324;52.040;11.528;2022-12-07T07:11:07;3.50;90.60
40622;DHT22;26324;52.040;11.528;2022-12-07T07:13:33;3.50;90.60
40622;DHT22;26324;52.040;11.528;2022-12-07T07:15:59;3.50;90.80
40622;DHT22;26324;52.040;11.528;2022-12-07T07:18:25;3.50;90.90
40622;DHT22;26324;52.040;11.528;2022-12-07T07:20:51;3.40;91.10
40622;DHT22;26324;52.040;11.528;2022-12-07T07:23:18;3.50;91.20
40622;DHT22;26324;52.040;11.528;2022-12-07T07:25:44;3.50;91.20
40622;DHT22;26324;52.040;11.528;2022-12-07T07:28:09;3.50;91.20
40622;DHT22;26324;52.040;11.528;2022-12-07T07:30:35;3.50;91.10
40622;DHT22;26324;52.040;11.528;2022-12-07T07:33:02;3.50;91.10
40622;DHT22;26324;52.040;11.528;2022-12-07T07:35:29;3.50;91.00
40622;DHT22;26324;52.040;11.528;2022-12-07T07:37:55;3.50;90.90
40622;DHT22;26324;52.040;11.528;2022-12-07T07:40:21;3.50;90.80
40622;DHT22;26324;52.040;11.528;2022-12-07T07:42:48;3.50;90.80
40622;DHT22;26324;52.040;11.528;2022-12-07T07:45:14;3.50;90.90
40622;DHT22;26324;52.040;11.528;2022-12-07T07:47:39;3.60;90.90
40622;DHT22;26324;52.040;11.528;2022-12-07T07:50:05;3.60;90.90
40622;DHT22;26324;52.040;11.528;2022-12-07T07:52:31;3.60;90.80
40622;DHT22;26324;52.040;11.528;2022-12-07T07:54:57;3.60;90.90
40622;DHT22;26324;52.040;11.528;2022-12-07T07:57:22;3.60;90.80
40622;DHT22;26324;52.040;11.528;2022-12-07T07:59:48;3.70;90.90
40622;DHT22;26324;52.040;11.528;2022-12-07T08:02:15;3.70;90.70
40622;DHT22;26324;52.040;11.528;2022-12-07T08:04:41;3.80;90.70
40622;DHT22;26324;52.040;11.528;2022-12-07T08:07:06;3.80;90.60
40622;DHT22;26324;52.040;11.528;2022-12-07T08:09:32;3.70;90.40
40622;DHT22;26324;52.040;11.528;2022-12-07T08:11:57;3.60;90.30
40622;DHT22;26324;52.040;11.528;2022-12-07T08:14:24;3.60;90.20
40622;DHT22;26324;52.040;11.528;2022-12-07T08:16:49;3.60;90.30
40622;DHT22;26324;52.040;11.528;2022-12-07T08:19:15;3.60;90.20
40622;DHT22;26324;52.040;11.528;2022-12-07T08:21:40;3.60;90.30
40622;DHT22;26324;52.040;11.528;2022-12-07T08:24:07;3.60;90.10
40622;DHT22;26324;52.040;11.528;2022-12-07T08:26:32;3.60;90.00
40622;DHT22;26324;52.040;11.528;2022-12-07T08:28:59;3.60;90.00
40622;DHT22;26324;52.040;11.528;2022-12-07T08:31:24;3.60;90.10
40622;DHT22;26324;52.040;11.528;2022-12-07T08:33:50;3.60;90.00
40622;DHT22;26324;52.040;11.528;2022-12-07T08:36:17;3.50;89.70
40622;DHT22;26324;52.040;11.528;2022-12-07T08:38:43;3.50;89.50
40622;DHT22;26324;52.040;11.528;2022-12-07T08:41:09;3.50;89.40
40622;DHT22;26324;52.040;11.528;2022-12-07T08:43:35;3.60;89.40
40622;DHT22;26324;52.040;11.528;2022-12-07T08:48:33;3.60;89.00
40622;DHT22;26324;52.040;11.528;2022-12-07T08:51:01;3.60;89.30
40622;DHT22;26324;52.040;11.528;2022-12-07T08:53:28;3.60;89.20
40622;DHT22;26324;52.040;11.528;2022-12-07T08:55:55;3.70;89.10
40622;DHT22;26324;52.040;11.528;2022-12-07T08:58:22;3.70;89.00
40622;DHT22;26324;52.040;11.528;2022-12-07T09:00:47;3.70;88.70
40622;DHT22;26324;52.040;11.528;2022-12-07T09:03:13;3.70;88.80
40622;DHT22;26324;52.040;11.528;2022-12-07T09:05:38;3.70;88.80
40622;DHT22;26324;52.040;11.528;2022-12-07T09:08:04;3.70;88.80
40622;DHT22;26324;52.040;11.528;2022-12-07T09:10:30;3.60;89.00
40622;DHT22;26324;52.040;11.528;2022-12-07T09:12:56;3.80;89.30
40622;DHT22;26324;52.040;11.528;2022-12-07T09:15:26;3.70;89.30
40622;DHT22;26324;52.040;11.528;2022-12-07T09:17:52;3.70;89.20
40622;DHT22;26324;52.040;11.528;2022-12-07T09:20:18;3.60;88.80
40622;DHT22;26324;52.040;11.528;2022-12-07T09:22:43;3.70;88.40
40622;DHT22;26324;52.040;11.528;2022-12-07T09:25:09;3.70;88.70
40622;DHT22;26324;52.040;11.528;2022-12-07T09:27:34;3.70;88.80
40622;DHT22;26324;52.040;11.528;2022-12-07T09:30:01;3.80;88.40
40622;DHT22;26324;52.040;11.528;2022-12-07T09:32:26;3.80;88.30
40622;DHT22;26324;52.040;11.528;2022-12-07T09:34:52;3.80;88.30
40622;DHT22;26324;52.040;11.528;2022-12-07T09:37:18;4.00;88.40
40622;DHT22;26324;52.040;11.528;2022-12-07T09:39:43;4.00;88.50
40622;DHT22;26324;52.040;11.528;2022-12-07T09:42:25;4.10;88.70
40622;DHT22;26324;52.040;11.528;2022-12-07T09:44:52;4.10;88.70
40622;DHT22;26324;52.040;11.528;2022-12-07T09:47:17;4.10;89.10
40622;DHT22;26324;52.040;11.528;2022-12-07T09:49:43;4.10;89.00
40622;DHT22;26324;52.040;11.528;2022-12-07T09:54:36;4.20;89.20
40622;DHT22;26324;52.040;11.528;2022-12-07T09:57:02;4.20;89.00
40622;DHT22;26324;52.040;11.528;2022-12-07T09:59:29;4.20;89.00
40622;DHT22;26324;52.040;11.528;2022-12-07T10:01:55;4.20;89.10
40622;DHT22;26324;52.040;11.528;2022-12-07T10:04:27;4.20;88.90
40622;DHT22;26324;52.040;11.528;2022-12-07T10:06:54;4.20;88.60
40622;DHT22;26324;52.040;11.528;2022-12-07T10:09:21;4.30;88.60
40622;DHT22;26324;52.040;11.528;2022-12-07T10:12:11;4.20;88.20
40622;DHT22;26324;52.040;11.528;2022-12-07T10:15:03;4.20;88.20
40622;DHT22;26324;52.040;11.528;2022-12-07T10:22:37;4.40;88.40
40622;DHT22;26324;52.040;11.528;2022-12-07T10:25:18;4.50;88.30
40622;DHT22;26324;52.040;11.528;2022-12-07T10:27:44;4.40;88.10
40622;DHT22;26324;52.040;11.528;2022-12-07T10:30:21;4.40;88.40
40622;DHT22;26324;52.040;11.528;2022-12-07T10:32:47;4.40;88.30
40622;DHT22;26324;52.040;11.528;2022-12-07T10:35:23;4.50;88.50
40622;DHT22;26324;52.040;11.528;2022-12-07T10:37:51;4.50;88.00
40622;DHT22;26324;52.040;11.528;2022-12-07T10:40:26;4.50;87.90
40622;DHT22;26324;52.040;11.528;2022-12-07T10:46:07;4.60;87.50
40622;DHT22;26324;52.040;11.528;2022-12-07T10:51:44;4.70;86.90
40622;DHT22;26324;52.040;11.528;2022-12-07T10:54:31;4.80;87.30
40622;DHT22;26324;52.040;11.528;2022-12-07T10:57:27;4.90;86.70
40622;DHT22;26324;52.040;11.528;2022-12-07T11:02:59;5.10;86.10
40622;DHT22;26324;52.040;11.528;2022-12-07T11:11:33;5.00;85.10
40622;DHT22;26324;52.040;11.528;2022-12-07T11:19:55;5.10;85.30
40622;DHT22;26324;52.040;11.528;2022-12-07T11:22:51;5.10;85.50
40622;DHT22;26324;52.040;11.528;2022-12-07T11:25:46;5.10;85.00
40622;DHT22;26324;52.040;11.528;2022-12-07T11:31:18;5.30;83.20
40622;DHT22;26324;52.040;11.528;2022-12-07T11:33:57;5.10;82.20
40622;DHT22;26324;52.040;11.528;2022-12-07T11:36:41;5.00;83.70
40622;DHT22;26324;52.040;11.528;2022-12-07T11:39:30;4.90;84.40
40622;DHT22;26324;52.040;11.528;2022-12-07T11:42:14;4.80;84.40
40622;DHT22;26324;52.040;11.528;2022-12-07T11:44:50;4.80;84.00
40622;DHT22;26324;52.040;11.528;2022-12-07T11:50:25;4.90;83.90
40622;DHT22;26324;52.040;11.528;2022-12-07T12:00:38;5.70;82.40
40622;DHT22;26324;52.040;11.528;2022-12-07T12:03:11;5.80;81.00
40622;DHT22;26324;52.040;11.528;2022-12-07T12:05:41;5.80;80.60
40622;DHT22;26324;52.040;11.528;2022-12-07T12:08:18;5.80;80.60
40622;DHT22;26324;52.040;11.528;2022-12-07T12:10:58;6.00;80.60
40622;DHT22;26324;52.040;11.528;2022-12-07T12:13:51;6.00;80.50
40622;DHT22;26324;52.040;11.528;2022-12-07T12:19:27;5.60;80.80
40622;DHT22;26324;52.040;11.528;2022-12-07T12:22:00;5.50;81.60
40622;DHT22;26324;52.040;11.528;2022-12-07T12:24:29;5.30;82.00
40622;DHT22;26324;52.040;11.528;2022-12-07T12:27:06;5.20;82.80
40622;DHT22;26324;52.040;11.528;2022-12-07T12:29:39;5.20;82.20
40622;DHT22;26324;52.040;11.528;2022-12-07T12:32:07;5.10;81.10
40622;DHT22;26324;52.040;11.528;2022-12-07T12:34:57;5.10;80.90
40622;DHT22;26324;52.040;11.528;2022-12-07T12:45:25;5.00;81.10
40622;DHT22;26324;52.040;11.528;2022-12-07T12:47:56;5.00;81.70
40622;DHT22;26324;52.040;11.528;2022-12-07T12:50:24;5.10;81.40
40622;DHT22;26324;52.040;11.528;2022-12-07T13:03:57;6.10;78.40
40622;DHT22;26324;52.040;11.528;2022-12-07T13:08:54;5.70;79.30
40622;DHT22;26324;52.040;11.528;2022-12-07T13:11:41;5.60;79.40
40622;DHT22;26324;52.040;11.528;2022-12-07T13:14:35;5.60;80.20
40622;DHT22;26324;52.040;11.528;2022-12-07T13:17:00;5.60;80.10
40622;DHT22;26324;52.040;11.528;2022-12-07T13:25:12;5.50;81.10
40622;DHT22;26324;52.040;11.528;2022-12-07T13:28:01;5.30;80.60
40622;DHT22;26324;52.040;11.528;2022-12-07T13:30:29;5.00;81.20
40622;DHT22;26324;52.040;11.528;2022-12-07T13:32:57;5.00;82.00
40622;DHT22;26324;52.040;11.528;2022-12-07T13:35:30;4.90;82.10
40622;DHT22;26324;52.040;11.528;2022-12-07T13:37:56;4.80;82.10
40622;DHT22;26324;52.040;11.528;2022-12-07T13:40:22;4.80;82.40
40622;DHT22;26324;52.040;11.528;2022-12-07T13:42:57;4.80;82.30
40622;DHT22;26324;52.040;11.528;2022-12-07T13:45:31;4.70;82.60
40622;DHT22;26324;52.040;11.528;2022-12-07T13:48:31;4.80;82.80
40622;DHT22;26324;52.040;11.528;2022-12-07T13:50:59;4.70;83.40
40622;DHT22;26324;52.040;11.528;2022-12-07T13:53:26;4.70;83.80
40622;DHT22;26324;52.040;11.528;2022-12-07T13:55:59;4.60;84.40
40622;DHT22;26324;52.040;11.528;2022-12-07T13:58:30;4.50;84.90
40622;DHT22;26324;52.040;11.528;2022-12-07T14:00:56;4.50;85.10
40622;DHT22;26324;52.040;11.528;2022-12-07T14:03:33;4.40;85.40
40622;DHT22;26324;52.040;11.528;2022-12-07T14:06:12;4.30;85.80
40622;DHT22;26324;52.040;11.528;2022-12-07T14:08:39;4.30;85.90
40622;DHT22;26324;52.040;11.528;2022-12-07T14:11:06;4.30;85.90
40622;DHT22;26324;52.040;11.528;2022-12-07T14:13:56;4.40;85.90
40622;DHT22;26324;52.040;11.528;2022-12-07T14:18:55;4.30;86.70
40622;DHT22;26324;52.040;11.528;2022-12-07T14:21:24;4.30;86.90
40622;DHT22;26324;52.040;11.528;2022-12-07T14:26:34;4.20;87.00
40622;DHT22;26324;52.040;11.528;2022-12-07T14:31:47;4.10;87.50
40622;DHT22;26324;52.040;11.528;2022-12-07T14:34:13;4.00;87.40
40622;DHT22;26324;52.040;11.528;2022-12-07T14:36:38;4.00;87.50
40622;DHT22;26324;52.040;11.528;2022-12-07T14:39:04;4.00;87.40
40622;DHT22;26324;52.040;11.528;2022-12-07T14:41:29;3.90;87.40
40622;DHT22;26324;52.040;11.528;2022-12-07T14:44:14;3.90;87.50
40622;DHT22;26324;52.040;11.528;2022-12-07T14:46:39;3.80;87.70
40622;DHT22;26324;52.040;11.528;2022-12-07T14:49:05;3.70;87.90
40622;DHT22;26324;52.040;11.528;2022-12-07T14:51:31;3.60;87.90
40622;DHT22;26324;52.040;11.528;2022-12-07T14:53:57;3.60;88.10
40622;DHT22;26324;52.040;11.528;2022-12-07T14:56:23;3.60;88.00
40622;DHT22;26324;52.040;11.528;2022-12-07T14:58:50;3.60;88.00
40622;DHT22;26324;52.040;11.528;2022-12-07T15:01:15;3.60;88.00
40622;DHT22;26324;52.040;11.528;2022-12-07T15:03:41;3.60;88.00
40622;DHT22;26324;52.040;11.528;2022-12-07T15:06:07;3.70;87.80
40622;DHT22;26324;52.040;11.528;2022-12-07T15:08:32;3.60;87.70
40622;DHT22;26324;52.040;11.528;2022-12-07T15:10:58;3.60;87.50
40622;DHT22;26324;52.040;11.528;2022-12-07T15:13:24;3.60;87.30
40622;DHT22;26324;52.040;11.528;2022-12-07T15:16:11;3.60;87.30
40622;DHT22;26324;52.040;11.528;2022-12-07T15:18:38;3.70;87.20
40622;DHT22;26324;52.040;11.528;2022-12-07T15:21:03;3.60;87.20
40622;DHT22;26324;52.040;11.528;2022-12-07T15:23:29;3.70;86.90
40622;DHT22;26324;52.040;11.528;2022-12-07T15:25:54;3.80;86.70
40622;DHT22;26324;52.040;11.528;2022-12-07T15:28:26;3.80;86.80
40622;DHT22;26324;52.040;11.528;2022-12-07T15:30:52;3.80;86.80
40622;DHT22;26324;52.040;11.528;2022-12-07T15:33:17;3.80;86.60
40622;DHT22;26324;52.040;11.528;2022-12-07T15:35:44;3.80;86.70
40622;DHT22;26324;52.040;11.528;2022-12-07T15:38:19;3.70;86.80
40622;DHT22;26324;52.040;11.528;2022-12-07T15:40:48;3.70;86.90
40622;DHT22;26324;52.040;11.528;2022-12-07T15:43:13;3.70;87.00
40622;DHT22;26324;52.040;11.528;2022-12-07T15:45:58;3.70;87.00
40622;DHT22;26324;52.040;11.528;2022-12-07T15:48:24;3.60;87.30
40622;DHT22;26324;52.040;11.528;2022-12-07T15:50:50;3.60;87.60
40622;DHT22;26324;52.040;11.528;2022-12-07T15:53:15;3.60;87.80
40622;DHT22;26324;52.040;11.528;2022-12-07T15:55:41;3.60;88.00
40622;DHT22;26324;52.040;11.528;2022-12-07T15:58:07;3.60;88.20
40622;DHT22;26324;52.040;11.528;2022-12-07T16:00:33;3.60;88.20
40622;DHT22;26324;52.040;11.528;2022-12-07T16:02:58;3.60;88.20
40622;DHT22;26324;52.040;11.528;2022-12-07T16:05:24;3.50;88.60
40622;DHT22;26324;52.040;11.528;2022-12-07T16:07:49;3.60;88.80
40622;DHT22;26324;52.040;11.528;2022-12-07T16:10:15;3.50;89.10
40622;DHT22;26324;52.040;11.528;2022-12-07T16:12:40;3.50;89.20
40622;DHT22;26324;52.040;11.528;2022-12-07T16:15:06;3.50;89.40
40622;DHT22;26324;52.040;11.528;2022-12-07T16:17:32;3.50;89.50
40622;DHT22;26324;52.040;11.528;2022-12-07T16:19:57;3.60;89.60
40622;DHT22;26324;52.040;11.528;2022-12-07T16:22:23;3.60;89.60
40622;DHT22;26324;52.040;11.528;2022-12-07T16:24:49;3.60;89.40
40622;DHT22;26324;52.040;11.528;2022-12-07T16:27:17;3.00;87.00
40622;DHT22;26324;52.040;11.528;2022-12-07T16:29:43;2.50;87.40
40622;DHT22;26324;52.040;11.528;2022-12-07T16:32:09;2.10;88.50
40622;DHT22;26324;52.040;11.528;2022-12-07T16:34:35;2.00;89.10
40622;DHT22;26324;52.040;11.528;2022-12-07T16:37:00;1.80;89.60
40622;DHT22;26324;52.040;11.528;2022-12-07T16:39:26;1.80;89.90
40622;DHT22;26324;52.040;11.528;2022-12-07T16:41:51;1.70;90.20
40622;DHT22;26324;52.040;11.528;2022-12-07T16:44:18;1.70;90.40
40622;DHT22;26324;52.040;11.528;2022-12-07T16:46:43;1.70;90.50
40622;DHT22;26324;52.040;11.528;2022-12-07T16:49:16;1.70;90.60
40622;DHT22;26324;52.040;11.528;2022-12-07T16:51:41;1.70;90.70
40622;DHT22;26324;52.040;11.528;2022-12-07T16:54:13;1.80;90.60
40622;DHT22;26324;52.040;11.528;2022-12-07T16:56:39;1.90;90.70
40622;DHT22;26324;52.040;11.528;2022-12-07T16:59:04;1.80;90.60
40622;DHT22;26324;52.040;11.528;2022-12-07T17:01:30;1.80;90.60
40622;DHT22;26324;52.040;11.528;2022-12-07T17:03:57;1.80;90.80
40622;DHT22;26324;52.040;11.528;2022-12-07T17:06:25;1.80;90.80
40622;DHT22;26324;52.040;11.528;2022-12-07T17:08:51;1.80;90.80
40622;DHT22;26324;52.040;11.528;2022-12-07T17:11:22;1.80;90.90
40622;DHT22;26324;52.040;11.528;2022-12-07T17:13:48;1.80;90.80
40622;DHT22;26324;52.040;11.528;2022-12-07T17:16:33;1.80;90.90
40622;DHT22;26324;52.040;11.528;2022-12-07T17:19:03;1.80;90.80
40622;DHT22;26324;52.040;11.528;2022-12-07T17:21:28;1.70;90.90
40622;DHT22;26324;52.040;11.528;2022-12-07T17:23:54;1.60;91.20
40622;DHT22;26324;52.040;11.528;2022-12-07T17:26:22;1.50;91.30
40622;DHT22;26324;52.040;11.528;2022-12-07T17:28:49;1.60;91.50
40622;DHT22;26324;52.040;11.528;2022-12-07T17:31:16;1.70;91.40
40622;DHT22;26324;52.040;11.528;2022-12-07T17:33:42;1.60;91.10
40622;DHT22;26324;52.040;11.528;2022-12-07T17:38:37;1.60;91.30
40622;DHT22;26324;52.040;11.528;2022-12-07T17:41:20;1.60;91.20